sensor_id;sensor_type;location;lat;lon;timestamp;P1;P2;P0
73973;PMS5003;62336;-26.094;27.994;2023-05-07T00:01:03;54;48;
73973;PMS5003;62336;-26.094;27.994;2023-05-07T00:03:25;55;50;
73973;PMS5003;62336;-26.094;27.994;2023-05-07T00:05:52;50;45;
73973;PMS5003;62336;-26.094;27.994;2023-05-07T00:08:17;51;48;
73973;PMS5003;62336;-26.094;27.994;2023-05-07T00:10:41;50;49;
73973;PMS5003;62336;-26.094;27.994;2023-05-07T00:13:07;54;50;
73973;PMS5003;62336;-26.094;27.994;2023-05-07T00:15:34;45;44;
73973;PMS5003;62336;-26.094;27.994;2023-05-07T00:17:59;48;47;
73973;PMS5003;62336;-26.094;27.994;2023-05-07T00:20:24;47;43;
73973;PMS5003;62336;-26.094;27.994;2023-05-07T00:22:51;49;45;
73973;PMS5003;62336;-26.094;27.994;2023-05-07T00:25:14;44;43;
73973;PMS5003;62336;-26.094;27.994;2023-05-07T00:27:39;49;44;
73973;PMS5003;62336;-26.094;27.994;2023-05-07T00:30:08;51;47;
73973;PMS5003;62336;-26.094;27.994;2023-05-07T00:32:31;51;49;
73973;PMS5003;62336;-26.094;27.994;2023-05-07T00:34:57;51;48;
73973;PMS5003;62336;-26.094;27.994;2023-05-07T00:37:21;46;45;
73973;PMS5003;62336;-26.094;27.994;2023-05-07T00:39:46;45;41;
73973;PMS5003;62336;-26.094;27.994;2023-05-07T00:42:12;45;42;
73973;PMS5003;62336;-26.094;27.994;2023-05-07T00:44:37;46;44;
73973;PMS5003;62336;-26.094;27.994;2023-05-07T00:47:03;53;52;
73973;PMS5003;62336;-26.094;27.994;2023-05-07T00:49:31;48;47;
73973;PMS5003;62336;-26.094;27.994;2023-05-07T00:51:55;46;44;
73973;PMS5003;62336;-26.094;27.994;2023-05-07T00:54:19;51;47;
73973;PMS5003;62336;-26.094;27.994;2023-05-07T00:56:44;42;41;
73973;PMS5003;62336;-26.094;27.994;2023-05-07T00:59:10;54;48;
73973;PMS5003;62336;-26.094;27.994;2023-05-07T01:01:36;49;46;
73973;PMS5003;62336;-26.094;27.994;2023-05-07T01:04:01;41;40;
73973;PMS5003;62336;-26.094;27.994;2023-05-07T01:06:26;56;52;
73973;PMS5003;62336;-26.094;27.994;2023-05-07T01:08:52;52;46;
73973;PMS5003;62336;-26.094;27.994;2023-05-07T01:11:18;46;46;
73973;PMS5003;62336;-26.094;27.994;2023-05-07T01:13:43;46;42;
73973;PMS5003;62336;-26.094;27.994;2023-05-07T01:16:13;54;52;
73973;PMS5003;62336;-26.094;27.994;2023-05-07T01:18:33;48;46;
73973;PMS5003;62336;-26.094;27.994;2023-05-07T01:20:59;52;49;
73973;PMS5003;62336;-26.094;27.994;2023-05-07T01:23:25;53;47;
73973;PMS5003;62336;-26.094;27.994;2023-05-07T01:25:53;49;48;
73973;PMS5003;62336;-26.094;27.994;2023-05-07T01:28:15;49;46;
73973;PMS5003;62336;-26.094;27.994;2023-05-07T01:30:43;47;44;
73973;PMS5003;62336;-26.094;27.994;2023-05-07T01:33:08;52;48;
73973;PMS5003;62336;-26.094;27.994;2023-05-07T01:35:34;51;48;
73973;PMS5003;62336;-26.094;27.994;2023-05-07T01:37:59;48;44;
73973;PMS5003;62336;-26.094;27.994;2023-05-07T01:40:22;55;47;
73973;PMS5003;62336;-26.094;27.994;2023-05-07T01:42:49;54;51;
73973;PMS5003;62336;-26.094;27.994;2023-05-07T01:45:13;47;45;
73973;PMS5003;62336;-26.094;27.994;2023-05-07T01:47:38;50;45;
73973;PMS5003;62336;-26.094;27.994;2023-05-07T01:50:05;49;45;
73973;PMS5003;62336;-26.094;27.994;2023-05-07T01:52:32;46;44;
73973;PMS5003;62336;-26.094;27.994;2023-05-07T01:54:55;46;44;
73973;PMS5003;62336;-26.094;27.994;2023-05-07T01:57:21;43;40;
73973;PMS5003;62336;-26.094;27.994;2023-05-07T01:59:47;44;41;
73973;PMS5003;62336;-26.094;27.994;2023-05-07T02:02:12;49;43;
73973;PMS5003;62336;-26.094;27.994;2023-05-07T02:04:37;50;48;
73973;PMS5003;62336;-26.094;27.994;2023-05-07T02:07:03;45;42;
73973;PMS5003;62336;-26.094;27.994;2023-05-07T02:09:27;48;45;
73973;PMS5003;62336;-26.094;27.994;2023-05-07T02:11:53;42;39;
73973;PMS5003;62336;-26.094;27.994;2023-05-07T02:14:20;46;40;
73973;PMS5003;62336;-26.094;27.994;2023-05-07T02:16:44;44;43;
73973;PMS5003;62336;-26.094;27.994;2023-05-07T02:19:10;45;41;
73973;PMS5003;62336;-26.094;27.994;2023-05-07T02:21:36;46;43;
73973;PMS5003;62336;-26.094;27.994;2023-05-07T02:24:00;44;42;
73973;PMS5003;62336;-26.094;27.994;2023-05-07T02:26:26;42;37;
73973;PMS5003;62336;-26.094;27.994;2023-05-07T02:28:52;35;33;
73973;PMS5003;62336;-26.094;27.994;2023-05-07T02:31:15;42;39;
73973;PMS5003;62336;-26.094;27.994;2023-05-07T02:33:40;43;41;
73973;PMS5003;62336;-26.094;27.994;2023-05-07T02:36:07;40;38;
73973;PMS5003;62336;-26.094;27.994;2023-05-07T02:38:31;39;37;
73973;PMS5003;62336;-26.094;27.994;2023-05-07T02:40:57;43;40;
73973;PMS5003;62336;-26.094;27.994;2023-05-07T02:43:23;47;42;
73973;PMS5003;62336;-26.094;27.994;2023-05-07T02:45:47;41;39;
73973;PMS5003;62336;-26.094;27.994;2023-05-07T02:48:14;42;38;
73973;PMS5003;62336;-26.094;27.994;2023-05-07T02:50:39;44;39;
73973;PMS5003;62336;-26.094;27.994;2023-05-07T02:53:03;40;39;
73973;PMS5003;62336;-26.094;27.994;2023-05-07T02:55:31;45;42;
73973;PMS5003;62336;-26.094;27.994;2023-05-07T02:57:55;39;36;
73973;PMS5003;62336;-26.094;27.994;2023-05-07T03:00:20;42;39;
73973;PMS5003;62336;-26.094;27.994;2023-05-07T03:02:45;49;45;
73973;PMS5003;62336;-26.094;27.994;2023-05-07T03:05:11;47;45;
73973;PMS5003;62336;-26.094;27.994;2023-05-07T03:07:38;41;39;
73973;PMS5003;62336;-26.094;27.994;2023-05-07T03:10:02;47;43;
73973;PMS5003;62336;-26.094;27.994;2023-05-07T03:12:27;48;44;
73973;PMS5003;62336;-26.094;27.994;2023-05-07T03:14:54;42;40;
73973;PMS5003;62336;-26.094;27.994;2023-05-07T03:17:17;48;44;
73973;PMS5003;62336;-26.094;27.994;2023-05-07T03:19:43;49;47;
73973;PMS5003;62336;-26.094;27.994;2023-05-07T03:22:09;52;47;
73973;PMS5003;62336;-26.094;27.994;2023-05-07T03:24:34;51;48;
73973;PMS5003;62336;-26.094;27.994;2023-05-07T03:27:00;47;43;
73973;PMS5003;62336;-26.094;27.994;2023-05-07T03:29:25;48;45;
73973;PMS5003;62336;-26.094;27.994;2023-05-07T03:31:51;48;45;
73973;PMS5003;62336;-26.094;27.994;2023-05-07T03:34:16;45;44;
73973;PMS5003;62336;-26.094;27.994;2023-05-07T03:36:43;46;43;
73973;PMS5003;62336;-26.094;27.994;2023-05-07T03:39:07;48;43;
73973;PMS5003;62336;-26.094;27.994;2023-05-07T03:41:32;43;42;
73973;PMS5003;62336;-26.094;27.994;2023-05-07T03:43:57;43;41;
73973;PMS5003;62336;-26.094;27.994;2023-05-07T03:46:26;40;38;
73973;PMS5003;62336;-26.094;27.994;2023-05-07T03:48:48;46;42;
73973;PMS5003;62336;-26.094;27.994;2023-05-07T03:51:14;43;40;
73973;PMS5003;62336;-26.094;27.994;2023-05-07T03:53:40;44;40;
73973;PMS5003;62336;-26.094;27.994;2023-05-07T03:56:06;45;42;
73973;PMS5003;62336;-26.094;27.994;2023-05-07T03:58:30;45;42;
73973;PMS5003;62336;-26.094;27.994;2023-05-07T04:00:55;45;41;
73973;PMS5003;62336;-26.094;27.994;2023-05-07T04:03:21;38;38;
73973;PMS5003;62336;-26.094;27.994;2023-05-07T04:05:47;43;40;
73973;PMS5003;62336;-26.094;27.994;2023-05-07T04:08:13;43;41;
73973;PMS5003;62336;-26.094;27.994;2023-05-07T04:10:38;42;40;
73973;PMS5003;62336;-26.094;27.994;2023-05-07T04:13:04;49;43;
73973;PMS5003;62336;-26.094;27.994;2023-05-07T04:15:28;45;41;
73973;PMS5003;62336;-26.094;27.994;2023-05-07T04:17:54;45;41;
73973;PMS5003;62336;-26.094;27.994;2023-05-07T04:20:19;47;42;
73973;PMS5003;62336;-26.094;27.994;2023-05-07T04:22:44;40;39;
73973;PMS5003;62336;-26.094;27.994;2023-05-07T04:25:10;42;38;
73973;PMS5003;62336;-26.094;27.994;2023-05-07T04:27:36;38;34;
73973;PMS5003;62336;-26.094;27.994;2023-05-07T04:30:01;38;35;
73973;PMS5003;62336;-26.094;27.994;2023-05-07T04:32:26;46;44;
73973;PMS5003;62336;-26.094;27.994;2023-05-07T04:34:51;49;45;
73973;PMS5003;62336;-26.094;27.994;2023-05-07T04:37:17;41;41;
73973;PMS5003;62336;-26.094;27.994;2023-05-07T04:39:43;45;44;
73973;PMS5003;62336;-26.094;27.994;2023-05-07T04:42:07;44;43;
73973;PMS5003;62336;-26.094;27.994;2023-05-07T04:44:33;44;42;
73973;PMS5003;62336;-26.094;27.994;2023-05-07T04:46:59;48;44;
73973;PMS5003;62336;-26.094;27.994;2023-05-07T04:49:24;40;39;
73973;PMS5003;62336;-26.094;27.994;2023-05-07T04:51:50;44;39;
73973;PMS5003;62336;-26.094;27.994;2023-05-07T04:54:15;43;41;
73973;PMS5003;62336;-26.094;27.994;2023-05-07T04:56:40;45;44;
73973;PMS5003;62336;-26.094;27.994;2023-05-07T04:59:06;50;47;
73973;PMS5003;62336;-26.094;27.994;2023-05-07T05:01:33;46;41;
73973;PMS5003;62336;-26.094;27.994;2023-05-07T05:03:58;40;34;
73973;PMS5003;62336;-26.094;27.994;2023-05-07T05:06:22;42;38;
73973;PMS5003;62336;-26.094;27.994;2023-05-07T05:08:48;42;40;
73973;PMS5003;62336;-26.094;27.994;2023-05-07T05:11:13;43;40;
73973;PMS5003;62336;-26.094;27.994;2023-05-07T05:13:39;41;36;
73973;PMS5003;62336;-26.094;27.994;2023-05-07T05:16:04;38;36;
73973;PMS5003;62336;-26.094;27.994;2023-05-07T05:18:31;43;41;
73973;PMS5003;62336;-26.094;27.994;2023-05-07T05:20:54;53;46;
73973;PMS5003;62336;-26.094;27.994;2023-05-07T05:23:20;50;49;
73973;PMS5003;62336;-26.094;27.994;2023-05-07T05:25:46;52;48;
73973;PMS5003;62336;-26.094;27.994;2023-05-07T05:28:10;55;49;
73973;PMS5003;62336;-26.094;27.994;2023-05-07T05:30:35;56;51;
73973;PMS5003;62336;-26.094;27.994;2023-05-07T05:33:00;55;54;
73973;PMS5003;62336;-26.094;27.994;2023-05-07T05:35:26;51;50;
73973;PMS5003;62336;-26.094;27.994;2023-05-07T05:37:52;53;50;
73973;PMS5003;62336;-26.094;27.994;2023-05-07T05:40:16;55;47;
73973;PMS5003;62336;-26.094;27.994;2023-05-07T05:42:42;50;48;
73973;PMS5003;62336;-26.094;27.994;2023-05-07T05:45:09;48;47;
73973;PMS5003;62336;-26.094;27.994;2023-05-07T05:47:34;51;46;
73973;PMS5003;62336;-26.094;27.994;2023-05-07T05:49:59;48;46;
73973;PMS5003;62336;-26.094;27.994;2023-05-07T05:52:25;37;35;
73973;PMS5003;62336;-26.094;27.994;2023-05-07T05:54:50;46;41;
73973;PMS5003;62336;-26.094;27.994;2023-05-07T05:57:15;37;37;
73973;PMS5003;62336;-26.094;27.994;2023-05-07T05:59:43;37;36;
73973;PMS5003;62336;-26.094;27.994;2023-05-07T06:02:06;39;36;
73973;PMS5003;62336;-26.094;27.994;2023-05-07T06:04:32;37;35;
73973;PMS5003;62336;-26.094;27.994;2023-05-07T06:06:59;36;33;
73973;PMS5003;62336;-26.094;27.994;2023-05-07T06:09:25;37;35;
73973;PMS5003;62336;-26.094;27.994;2023-05-07T06:11:49;31;30;
73973;PMS5003;62336;-26.094;27.994;2023-05-07T06:14:14;33;32;
73973;PMS5003;62336;-26.094;27.994;2023-05-07T06:16:39;30;29;
73973;PMS5003;62336;-26.094;27.994;2023-05-07T06:19:06;29;28;
73973;PMS5003;62336;-26.094;27.994;2023-05-07T06:21:32;30;29;
73973;PMS5003;62336;-26.094;27.994;2023-05-07T06:24:02;29;27;
73973;PMS5003;62336;-26.094;27.994;2023-05-07T06:26:21;30;30;
73973;PMS5003;62336;-26.094;27.994;2023-05-07T06:28:46;28;27;
73973;PMS5003;62336;-26.094;27.994;2023-05-07T06:31:12;27;27;
73973;PMS5003;62336;-26.094;27.994;2023-05-07T06:33:37;29;27;
73973;PMS5003;62336;-26.094;27.994;2023-05-07T06:36:02;28;25;
73973;PMS5003;62336;-26.094;27.994;2023-05-07T06:38:28;29;28;
73973;PMS5003;62336;-26.094;27.994;2023-05-07T06:40:54;32;30;
73973;PMS5003;62336;-26.094;27.994;2023-05-07T06:43:19;33;33;
73973;PMS5003;62336;-26.094;27.994;2023-05-07T06:45:44;25;24;
73973;PMS5003;62336;-26.094;27.994;2023-05-07T06:48:09;29;29;
73973;PMS5003;62336;-26.094;27.994;2023-05-07T06:50:36;29;27;
73973;PMS5003;62336;-26.094;27.994;2023-05-07T06:53:00;31;29;
73973;PMS5003;62336;-26.094;27.994;2023-05-07T06:55:26;29;28;
73973;PMS5003;62336;-26.094;27.994;2023-05-07T06:57:51;30;29;
73973;PMS5003;62336;-26.094;27.994;2023-05-07T07:00:16;28;26;
73973;PMS5003;62336;-26.094;27.994;2023-05-07T07:02:42;23;21;
73973;PMS5003;62336;-26.094;27.994;2023-05-07T07:05:09;24;20;
73973;PMS5003;62336;-26.094;27.994;2023-05-07T07:07:33;21;18;
73973;PMS5003;62336;-26.094;27.994;2023-05-07T07:09:58;18;17;
73973;PMS5003;62336;-26.094;27.994;2023-05-07T07:12:24;16;15;
73973;PMS5003;62336;-26.094;27.994;2023-05-07T07:14:50;15;15;
73973;PMS5003;62336;-26.094;27.994;2023-05-07T07:17:14;14;13;
73973;PMS5003;62336;-26.094;27.994;2023-05-07T07:19:40;16;15;
73973;PMS5003;62336;-26.094;27.994;2023-05-07T07:22:05;20;16;
73973;PMS5003;62336;-26.094;27.994;2023-05-07T07:24:31;17;15;
73973;PMS5003;62336;-26.094;27.994;2023-05-07T07:26:57;16;15;
73973;PMS5003;62336;-26.094;27.994;2023-05-07T07:29:23;19;18;
73973;PMS5003;62336;-26.094;27.994;2023-05-07T07:31:50;13;13;
73973;PMS5003;62336;-26.094;27.994;2023-05-07T07:34:15;16;16;
73973;PMS5003;62336;-26.094;27.994;2023-05-07T07:36:40;17;16;
73973;PMS5003;62336;-26.094;27.994;2023-05-07T07:39:05;17;16;
73973;PMS5003;62336;-26.094;27.994;2023-05-07T07:41:30;19;16;
73973;PMS5003;62336;-26.094;27.994;2023-05-07T07:43:55;20;18;
73973;PMS5003;62336;-26.094;27.994;2023-05-07T07:46:20;16;15;
73973;PMS5003;62336;-26.094;27.994;2023-05-07T07:48:47;18;17;
73973;PMS5003;62336;-26.094;27.994;2023-05-07T07:51:12;15;15;
73973;PMS5003;62336;-26.094;27.994;2023-05-07T07:53:40;14;14;
73973;PMS5003;62336;-26.094;27.994;2023-05-07T07:56:05;13;12;
73973;PMS5003;62336;-26.094;27.994;2023-05-07T07:58:30;13;12;
73973;PMS5003;62336;-26.094;27.994;2023-05-07T08:00:55;16;15;
73973;PMS5003;62336;-26.094;27.994;2023-05-07T08:03:20;14;14;
73973;PMS5003;62336;-26.094;27.994;2023-05-07T08:05:47;15;13;
73973;PMS5003;62336;-26.094;27.994;2023-05-07T08:08:12;13;13;
73973;PMS5003;62336;-26.094;27.994;2023-05-07T08:10:37;13;11;
73973;PMS5003;62336;-26.094;27.994;2023-05-07T08:13:03;12;11;
73973;PMS5003;62336;-26.094;27.994;2023-05-07T08:15:28;12;11;
73973;PMS5003;62336;-26.094;27.994;2023-05-07T08:17:54;12;11;
73973;PMS5003;62336;-26.094;27.994;2023-05-07T08:20:18;15;13;
73973;PMS5003;62336;-26.094;27.994;2023-05-07T08:22:44;17;16;
73973;PMS5003;62336;-26.094;27.994;2023-05-07T08:25:09;15;15;
73973;PMS5003;62336;-26.094;27.994;2023-05-07T08:27:36;13;12;
73973;PMS5003;62336;-26.094;27.994;2023-05-07T08:30:00;10;10;
73973;PMS5003;62336;-26.094;27.994;2023-05-07T08:32:27;12;11;
73973;PMS5003;62336;-26.094;27.994;2023-05-07T08:34:51;11;11;
73973;PMS5003;62336;-26.094;27.994;2023-05-07T08:37:17;11;11;
73973;PMS5003;62336;-26.094;27.994;2023-05-07T08:39:43;14;12;
73973;PMS5003;62336;-26.094;27.994;2023-05-07T08:42:09;11;11;
73973;PMS5003;62336;-26.094;27.994;2023-05-07T08:44:34;13;13;
73973;PMS5003;62336;-26.094;27.994;2023-05-07T08:47:01;9;9;
73973;PMS5003;62336;-26.094;27.994;2023-05-07T08:49:26;11;11;
73973;PMS5003;62336;-26.094;27.994;2023-05-07T08:51:53;9;9;
73973;PMS5003;62336;-26.094;27.994;2023-05-07T08:54:17;16;13;
73973;PMS5003;62336;-26.094;27.994;2023-05-07T08:56:42;15;14;
73973;PMS5003;62336;-26.094;27.994;2023-05-07T08:59:10;12;12;
73973;PMS5003;62336;-26.094;27.994;2023-05-07T09:01:34;15;15;
73973;PMS5003;62336;-26.094;27.994;2023-05-07T09:03:59;13;13;
73973;PMS5003;62336;-26.094;27.994;2023-05-07T09:06:25;12;11;
73973;PMS5003;62336;-26.094;27.994;2023-05-07T09:08:51;12;11;
73973;PMS5003;62336;-26.094;27.994;2023-05-07T09:11:16;14;14;
73973;PMS5003;62336;-26.094;27.994;2023-05-07T09:13:42;9;8;
73973;PMS5003;62336;-26.094;27.994;2023-05-07T09:16:10;14;14;
73973;PMS5003;62336;-26.094;27.994;2023-05-07T09:18:34;12;12;
73973;PMS5003;62336;-26.094;27.994;2023-05-07T09:21:01;15;14;
73973;PMS5003;62336;-26.094;27.994;2023-05-07T09:23:25;15;14;
73973;PMS5003;62336;-26.094;27.994;2023-05-07T09:25:52;18;14;
73973;PMS5003;62336;-26.094;27.994;2023-05-07T09:28:17;12;11;
73973;PMS5003;62336;-26.094;27.994;2023-05-07T09:30:42;12;12;
73973;PMS5003;62336;-26.094;27.994;2023-05-07T09:33:08;11;11;
73973;PMS5003;62336;-26.094;27.994;2023-05-07T09:35:34;11;11;
73973;PMS5003;62336;-26.094;27.994;2023-05-07T09:38:00;15;15;
73973;PMS5003;62336;-26.094;27.994;2023-05-07T09:40:25;11;11;
73973;PMS5003;62336;-26.094;27.994;2023-05-07T09:42:51;14;13;
73973;PMS5003;62336;-26.094;27.994;2023-05-07T09:45:16;15;14;
73973;PMS5003;62336;-26.094;27.994;2023-05-07T09:47:41;16;15;
73973;PMS5003;62336;-26.094;27.994;2023-05-07T09:50:08;14;14;
73973;PMS5003;62336;-26.094;27.994;2023-05-07T09:52:33;10;9;
73973;PMS5003;62336;-26.094;27.994;2023-05-07T09:55:00;19;15;
73973;PMS5003;62336;-26.094;27.994;2023-05-07T09:57:22;12;12;
73973;PMS5003;62336;-26.094;27.994;2023-05-07T09:59:48;12;11;
73973;PMS5003;62336;-26.094;27.994;2023-05-07T10:02:14;13;13;
73973;PMS5003;62336;-26.094;27.994;2023-05-07T10:04:40;14;13;
73973;PMS5003;62336;-26.094;27.994;2023-05-07T10:07:06;13;13;
73973;PMS5003;62336;-26.094;27.994;2023-05-07T10:09:31;18;17;
73973;PMS5003;62336;-26.094;27.994;2023-05-07T10:11:56;18;17;
73973;PMS5003;62336;-26.094;27.994;2023-05-07T10:14:22;14;14;
73973;PMS5003;62336;-26.094;27.994;2023-05-07T10:16:48;14;13;
73973;PMS5003;62336;-26.094;27.994;2023-05-07T10:19:13;14;14;
73973;PMS5003;62336;-26.094;27.994;2023-05-07T10:21:40;14;13;
73973;PMS5003;62336;-26.094;27.994;2023-05-07T10:24:06;19;17;
73973;PMS5003;62336;-26.094;27.994;2023-05-07T10:26:30;14;13;
73973;PMS5003;62336;-26.094;27.994;2023-05-07T10:28:57;13;13;
73973;PMS5003;62336;-26.094;27.994;2023-05-07T10:33:47;15;13;
73973;PMS5003;62336;-26.094;27.994;2023-05-07T10:36:13;14;14;
73973;PMS5003;62336;-26.094;27.994;2023-05-07T10:38:38;16;14;
73973;PMS5003;62336;-26.094;27.994;2023-05-07T10:41:05;13;12;
73973;PMS5003;62336;-26.094;27.994;2023-05-07T10:48:20;12;12;
73973;PMS5003;62336;-26.094;27.994;2023-05-07T10:50:45;13;13;
73973;PMS5003;62336;-26.094;27.994;2023-05-07T10:55:37;14;13;
73973;PMS5003;62336;-26.094;27.994;2023-05-07T11:05:19;13;13;
73973;PMS5003;62336;-26.094;27.994;2023-05-07T11:07:45;11;11;
73973;PMS5003;62336;-26.094;27.994;2023-05-07T11:10:11;12;11;
73973;PMS5003;62336;-26.094;27.994;2023-05-07T11:15:01;11;11;
73973;PMS5003;62336;-26.094;27.994;2023-05-07T11:17:27;9;9;
73973;PMS5003;62336;-26.094;27.994;2023-05-07T11:19:53;9;8;
73973;PMS5003;62336;-26.094;27.994;2023-05-07T11:24:44;12;11;
73973;PMS5003;62336;-26.094;27.994;2023-05-07T11:27:09;13;12;
73973;PMS5003;62336;-26.094;27.994;2023-05-07T11:29:36;13;13;
73973;PMS5003;62336;-26.094;27.994;2023-05-07T11:32:01;12;12;
73973;PMS5003;62336;-26.094;27.994;2023-05-07T11:34:27;14;13;
73973;PMS5003;62336;-26.094;27.994;2023-05-07T11:36:52;13;13;
73973;PMS5003;62336;-26.094;27.994;2023-05-07T11:39:26;16;16;
73973;PMS5003;62336;-26.094;27.994;2023-05-07T11:41:41;11;11;
73973;PMS5003;62336;-26.094;27.994;2023-05-07T11:44:07;12;12;
73973;PMS5003;62336;-26.094;27.994;2023-05-07T11:46:33;14;13;
73973;PMS5003;62336;-26.094;27.994;2023-05-07T11:49:00;12;12;
73973;PMS5003;62336;-26.094;27.994;2023-05-07T11:51:25;12;10;
73973;PMS5003;62336;-26.094;27.994;2023-05-07T11:53:50;11;10;
73973;PMS5003;62336;-26.094;27.994;2023-05-07T11:56:17;13;13;
73973;PMS5003;62336;-26.094;27.994;2023-05-07T11:58:42;10;10;
73973;PMS5003;62336;-26.094;27.994;2023-05-07T12:01:07;11;11;
73973;PMS5003;62336;-26.094;27.994;2023-05-07T12:03:32;13;11;
73973;PMS5003;62336;-26.094;27.994;2023-05-07T12:05:59;11;11;
73973;PMS5003;62336;-26.094;27.994;2023-05-07T12:08:23;11;11;
73973;PMS5003;62336;-26.094;27.994;2023-05-07T12:10:48;14;13;
73973;PMS5003;62336;-26.094;27.994;2023-05-07T12:13:14;17;15;
73973;PMS5003;62336;-26.094;27.994;2023-05-07T12:15:39;13;13;
73973;PMS5003;62336;-26.094;27.994;2023-05-07T12:18:05;16;16;
73973;PMS5003;62336;-26.094;27.994;2023-05-07T12:20:30;18;15;
73973;PMS5003;62336;-26.094;27.994;2023-05-07T12:22:54;14;14;
73973;PMS5003;62336;-26.094;27.994;2023-05-07T12:25:20;14;13;
73973;PMS5003;62336;-26.094;27.994;2023-05-07T12:27:46;14;13;
73973;PMS5003;62336;-26.094;27.994;2023-05-07T12:30:11;14;13;
73973;PMS5003;62336;-26.094;27.994;2023-05-07T12:32:37;16;14;
73973;PMS5003;62336;-26.094;27.994;2023-05-07T12:35:03;14;13;
73973;PMS5003;62336;-26.094;27.994;2023-05-07T12:37:28;12;12;
73973;PMS5003;62336;-26.094;27.994;2023-05-07T12:42:20;13;13;
73973;PMS5003;62336;-26.094;27.994;2023-05-07T12:44:45;19;18;
73973;PMS5003;62336;-26.094;27.994;2023-05-07T12:47:11;17;15;
73973;PMS5003;62336;-26.094;27.994;2023-05-07T12:49:37;18;16;
73973;PMS5003;62336;-26.094;27.994;2023-05-07T12:52:02;15;15;
73973;PMS5003;62336;-26.094;27.994;2023-05-07T12:54:28;17;16;
73973;PMS5003;62336;-26.094;27.994;2023-05-07T12:59:18;16;15;
73973;PMS5003;62336;-26.094;27.994;2023-05-07T13:01:44;17;16;
73973;PMS5003;62336;-26.094;27.994;2023-05-07T13:04:09;17;14;
73973;PMS5003;62336;-26.094;27.994;2023-05-07T13:06:34;18;17;
73973;PMS5003;62336;-26.094;27.994;2023-05-07T13:08:59;17;15;
73973;PMS5003;62336;-26.094;27.994;2023-05-07T13:11:24;15;14;
73973;PMS5003;62336;-26.094;27.994;2023-05-07T13:13:50;18;16;
73973;PMS5003;62336;-26.094;27.994;2023-05-07T13:16:16;19;17;
73973;PMS5003;62336;-26.094;27.994;2023-05-07T13:18:41;15;15;
73973;PMS5003;62336;-26.094;27.994;2023-05-07T13:21:06;18;16;
73973;PMS5003;62336;-26.094;27.994;2023-05-07T13:23:32;17;17;
73973;PMS5003;62336;-26.094;27.994;2023-05-07T13:25:57;17;16;
73973;PMS5003;62336;-26.094;27.994;2023-05-07T13:28:22;18;15;
73973;PMS5003;62336;-26.094;27.994;2023-05-07T13:30:48;18;17;
73973;PMS5003;62336;-26.094;27.994;2023-05-07T13:33:12;22;19;
73973;PMS5003;62336;-26.094;27.994;2023-05-07T13:35:38;16;16;
73973;PMS5003;62336;-26.094;27.994;2023-05-07T13:38:04;21;19;
73973;PMS5003;62336;-26.094;27.994;2023-05-07T13:40:28;21;19;
73973;PMS5003;62336;-26.094;27.994;2023-05-07T13:42:54;16;16;
73973;PMS5003;62336;-26.094;27.994;2023-05-07T13:45:19;18;16;
73973;PMS5003;62336;-26.094;27.994;2023-05-07T13:47:45;20;19;
73973;PMS5003;62336;-26.094;27.994;2023-05-07T13:50:10;18;17;
73973;PMS5003;62336;-26.094;27.994;2023-05-07T13:52:37;16;15;
73973;PMS5003;62336;-26.094;27.994;2023-05-07T13:55:02;24;21;
73973;PMS5003;62336;-26.094;27.994;2023-05-07T13:57:27;17;16;
73973;PMS5003;62336;-26.094;27.994;2023-05-07T13:59:53;17;17;
73973;PMS5003;62336;-26.094;27.994;2023-05-07T14:02:18;21;21;
73973;PMS5003;62336;-26.094;27.994;2023-05-07T14:04:43;17;16;
73973;PMS5003;62336;-26.094;27.994;2023-05-07T14:07:09;16;15;
73973;PMS5003;62336;-26.094;27.994;2023-05-07T14:09:34;20;19;
73973;PMS5003;62336;-26.094;27.994;2023-05-07T14:11:59;18;17;
73973;PMS5003;62336;-26.094;27.994;2023-05-07T14:14:25;18;17;
73973;PMS5003;62336;-26.094;27.994;2023-05-07T14:16:49;19;17;
73973;PMS5003;62336;-26.094;27.994;2023-05-07T14:19:15;19;19;
73973;PMS5003;62336;-26.094;27.994;2023-05-07T14:21:40;19;19;
73973;PMS5003;62336;-26.094;27.994;2023-05-07T14:24:06;19;17;
73973;PMS5003;62336;-26.094;27.994;2023-05-07T14:26:31;19;18;
73973;PMS5003;62336;-26.094;27.994;2023-05-07T14:28:56;21;18;
73973;PMS5003;62336;-26.094;27.994;2023-05-07T14:31:21;17;15;
73973;PMS5003;62336;-26.094;27.994;2023-05-07T14:33:47;20;18;
73973;PMS5003;62336;-26.094;27.994;2023-05-07T14:36:12;16;15;
73973;PMS5003;62336;-26.094;27.994;2023-05-07T14:38:37;16;14;
73973;PMS5003;62336;-26.094;27.994;2023-05-07T14:41:03;13;12;
73973;PMS5003;62336;-26.094;27.994;2023-05-07T14:43:28;15;15;
73973;PMS5003;62336;-26.094;27.994;2023-05-07T14:45:54;11;11;
73973;PMS5003;62336;-26.094;27.994;2023-05-07T14:48:19;12;12;
73973;PMS5003;62336;-26.094;27.994;2023-05-07T14:50:46;12;11;
73973;PMS5003;62336;-26.094;27.994;2023-05-07T14:53:10;12;11;
73973;PMS5003;62336;-26.094;27.994;2023-05-07T14:55:35;12;12;
73973;PMS5003;62336;-26.094;27.994;2023-05-07T14:58:01;19;16;
73973;PMS5003;62336;-26.094;27.994;2023-05-07T15:00:26;16;14;
73973;PMS5003;62336;-26.094;27.994;2023-05-07T15:02:52;14;13;
73973;PMS5003;62336;-26.094;27.994;2023-05-07T15:05:18;15;14;
73973;PMS5003;62336;-26.094;27.994;2023-05-07T15:07:43;17;17;
73973;PMS5003;62336;-26.094;27.994;2023-05-07T15:10:08;28;24;
73973;PMS5003;62336;-26.094;27.994;2023-05-07T15:12:35;13;12;
73973;PMS5003;62336;-26.094;27.994;2023-05-07T15:14:59;10;9;
73973;PMS5003;62336;-26.094;27.994;2023-05-07T15:17:24;10;10;
73973;PMS5003;62336;-26.094;27.994;2023-05-07T15:19:50;12;12;
73973;PMS5003;62336;-26.094;27.994;2023-05-07T15:22:14;13;13;
73973;PMS5003;62336;-26.094;27.994;2023-05-07T15:24:40;9;8;
73973;PMS5003;62336;-26.094;27.994;2023-05-07T15:27:06;11;11;
73973;PMS5003;62336;-26.094;27.994;2023-05-07T15:29:32;9;8;
73973;PMS5003;62336;-26.094;27.994;2023-05-07T15:31:57;11;10;
73973;PMS5003;62336;-26.094;27.994;2023-05-07T15:34:23;12;11;
73973;PMS5003;62336;-26.094;27.994;2023-05-07T15:36:48;9;8;
73973;PMS5003;62336;-26.094;27.994;2023-05-07T15:39:14;8;8;
73973;PMS5003;62336;-26.094;27.994;2023-05-07T15:41:40;10;9;
73973;PMS5003;62336;-26.094;27.994;2023-05-07T15:44:06;9;9;
73973;PMS5003;62336;-26.094;27.994;2023-05-07T15:46:31;12;11;
73973;PMS5003;62336;-26.094;27.994;2023-05-07T15:48:59;11;10;
73973;PMS5003;62336;-26.094;27.994;2023-05-07T15:51:23;11;11;
73973;PMS5003;62336;-26.094;27.994;2023-05-07T15:53:48;9;9;
73973;PMS5003;62336;-26.094;27.994;2023-05-07T15:56:13;9;9;
73973;PMS5003;62336;-26.094;27.994;2023-05-07T15:58:39;13;11;
73973;PMS5003;62336;-26.094;27.994;2023-05-07T16:01:05;9;9;